createdAt,value
2019-04-22T00:02:10.772Z,10.50
2019-04-22T00:04:55.080Z,10.60
2019-04-22T00:07:41.975Z,10.60
2019-04-22T00:10:28.947Z,10.70
2019-04-22T00:12:59.779Z,10.70
2019-04-22T00:15:33.942Z,10.80
2019-04-22T00:18:16.627Z,10.80
2019-04-22T00:20:50.164Z,10.80
2019-04-22T00:23:24.563Z,10.90
2019-04-22T00:26:03.982Z,10.90
2019-04-22T00:28:44.056Z,10.80
2019-04-22T00:31:20.920Z,10.70
2019-04-22T00:34:01.922Z,10.70
2019-04-22T00:36:36.478Z,10.70
2019-04-22T00:39:17.051Z,10.80
2019-04-22T00:41:50.836Z,10.80
2019-04-22T00:44:29.986Z,10.90
2019-04-22T00:47:01.147Z,11.00
2019-04-22T00:50:06.263Z,11.10
2019-04-22T00:52:18.242Z,11.10
2019-04-22T00:54:54.414Z,11.00
2019-04-22T00:57:28.053Z,11.00
2019-04-22T01:00:06.672Z,10.90
2019-04-22T01:03:02.991Z,10.80
2019-04-22T01:05:38.793Z,10.80
2019-04-22T01:08:15.145Z,10.70
2019-04-22T01:10:53.584Z,10.70
2019-04-22T01:13:24.967Z,10.70
2019-04-22T01:16:09.342Z,10.70
2019-04-22T01:18:36.297Z,10.80
2019-04-22T01:21:23.153Z,10.80
2019-04-22T01:23:52.107Z,10.80
2019-04-22T01:26:27.135Z,10.80
2019-04-22T01:29:02.508Z,10.90
2019-04-22T01:31:29.313Z,10.90
2019-04-22T01:34:16.170Z,10.70
2019-04-22T01:36:58.714Z,10.60
2019-04-22T01:39:43.569Z,10.70
2019-04-22T01:42:35.877Z,10.70
2019-04-22T01:44:50.893Z,10.60
2019-04-22T01:47:32.483Z,10.50
2019-04-22T01:50:06.202Z,10.50
2019-04-22T01:52:47.373Z,10.50
2019-04-22T01:55:27.387Z,10.40
2019-04-22T01:57:53.303Z,10.40
2019-04-22T02:00:36.666Z,10.30
2019-04-22T02:03:12.042Z,10.20
2019-04-22T02:05:48.474Z,10.10
2019-04-22T02:08:32.885Z,10.10
2019-04-22T02:11:00.994Z,10.20
2019-04-22T02:13:38.291Z,10.10
2019-04-22T02:16:17.533Z,10.00
2019-04-22T02:18:52.146Z,10.00
2019-04-22T02:21:31.897Z,10.00
2019-04-22T02:24:02.711Z,9.90
2019-04-22T02:26:42.047Z,9.80
2019-04-22T02:29:17.225Z,9.90
2019-04-22T02:31:59.497Z,9.80
2019-04-22T02:37:15.249Z,9.80
2019-04-22T02:39:48.674Z,9.80
2019-04-22T02:42:21.566Z,9.80
2019-04-22T02:47:54.678Z,9.70
2019-04-22T02:50:10.657Z,9.50
2019-04-22T02:52:54.261Z,9.40
2019-04-22T02:55:27.660Z,9.40
2019-04-22T02:58:27.627Z,9.30
2019-04-22T03:00:46.669Z,9.30
2019-04-22T03:08:29.669Z,9.20
2019-04-22T03:21:31.237Z,8.90
2019-04-22T03:30:11.306Z,9.00
2019-04-22T03:37:45.730Z,9.10
2019-04-22T03:43:03.881Z,9.10
2019-04-22T03:51:01.898Z,8.80
2019-04-22T03:53:29.126Z,8.70
2019-04-22T03:55:53.111Z,8.60
2019-04-22T03:58:28.478Z,8.50
2019-04-22T04:01:08.520Z,8.50
2019-04-22T04:03:50.670Z,8.60
2019-04-22T04:06:18.047Z,8.60
2019-04-22T04:09:01.882Z,9.00
2019-04-22T04:11:43.245Z,9.80
2019-04-22T04:14:24.734Z,10.70
2019-04-22T04:16:49.967Z,11.20
2019-04-22T04:19:36.804Z,11.40
2019-04-22T04:22:00.709Z,11.40
2019-04-22T04:27:30.903Z,11.10
2019-04-22T04:35:19.793Z,12.20
2019-04-22T04:37:50.112Z,13.00
2019-04-22T04:40:25.061Z,13.90
2019-04-22T04:43:05.695Z,15.10
2019-04-22T04:50:38.300Z,18.30
2019-04-22T04:53:20.282Z,19.30
2019-04-22T04:55:59.801Z,20.60
2019-04-22T04:58:47.378Z,21.20
2019-04-22T05:01:03.055Z,21.60
2019-04-22T05:03:48.846Z,22.00
2019-04-22T05:06:21.726Z,22.60
2019-04-22T05:09:13.314Z,23.20
2019-04-22T05:11:50.207Z,23.20
2019-04-22T05:16:54.617Z,23.00
2019-04-22T05:19:26.297Z,22.50
2019-04-22T05:24:38.094Z,22.70
2019-04-22T05:27:19.727Z,22.90
2019-04-22T05:32:28.765Z,22.70
2019-04-22T05:35:03.489Z,22.70
2019-04-22T05:37:43.258Z,22.50
2019-04-22T05:42:51.260Z,21.90
2019-04-22T05:45:28.272Z,21.80
2019-04-22T05:48:01.307Z,21.30
2019-04-22T05:50:36.759Z,20.90
2019-04-22T05:53:14.815Z,20.90
2019-04-22T05:55:58.555Z,21.20
2019-04-22T05:58:41.526Z,21.30
2019-04-22T06:03:52.811Z,21.30
2019-04-22T06:06:22.440Z,21.20
2019-04-22T06:09:07.163Z,21.50
2019-04-22T06:11:41.120Z,21.50
2019-04-22T06:14:14.956Z,21.30
2019-04-22T06:16:59.166Z,21.40
2019-04-22T06:19:31.324Z,21.70
2019-04-22T06:22:17.506Z,21.50
2019-04-22T06:24:50.488Z,21.60
2019-04-22T06:29:53.719Z,21.80
2019-04-22T06:32:31.428Z,21.80
2019-04-22T06:35:16.619Z,21.40
2019-04-22T06:38:09.736Z,21.40
2019-04-22T06:40:27.423Z,21.10
2019-04-22T06:43:06.123Z,21.10
2019-04-22T06:45:51.377Z,21.10
2019-04-22T06:48:24.027Z,20.90
2019-04-22T06:50:52.783Z,20.60
2019-04-22T06:53:34.700Z,20.60
2019-04-22T06:56:04.772Z,20.50
2019-04-22T06:58:51.053Z,20.30
2019-04-22T07:01:35.835Z,20.30
2019-04-22T07:03:56.953Z,19.50
2019-04-22T07:06:40.125Z,19.30
2019-04-22T07:09:28.480Z,19.20
2019-04-22T07:11:48.342Z,19.30
2019-04-22T07:14:22.494Z,19.40
2019-04-22T07:17:03.965Z,19.50
2019-04-22T07:19:40.851Z,19.40
2019-04-22T07:22:18.151Z,19.60
2019-04-22T07:24:53.899Z,19.90
2019-04-22T07:27:44.064Z,20.00
2019-04-22T07:30:09.416Z,20.00
2019-04-22T07:32:58.717Z,20.20
2019-04-22T07:35:22.848Z,20.20
2019-04-22T07:37:47.086Z,20.30
2019-04-22T07:40:40.066Z,20.40
2019-04-22T07:43:15.525Z,20.90
2019-04-22T07:51:02.652Z,20.40
2019-04-22T07:53:33.536Z,20.60
2019-04-22T07:56:11.833Z,20.90
2019-04-22T07:58:50.346Z,20.20
2019-04-22T08:01:26.392Z,20.20
2019-04-22T08:06:38.490Z,20.50
2019-04-22T08:09:19.631Z,20.70
2019-04-22T08:11:52.679Z,20.40
2019-04-22T08:14:34.575Z,19.90
2019-04-22T08:17:36.346Z,19.50
2019-04-22T08:19:41.936Z,19.20
2019-04-22T08:22:14.580Z,18.80
2019-04-22T08:25:10.075Z,18.60
2019-04-22T08:27:35.567Z,18.20
2019-04-22T08:30:27.942Z,18.30
2019-04-22T08:32:45.979Z,18.10
2019-04-22T08:35:29.264Z,17.80
2019-04-22T08:38:02.561Z,17.70
2019-04-22T08:40:45.291Z,17.40
2019-04-22T08:43:20.514Z,17.20
2019-04-22T08:45:51.060Z,17.20
2019-04-22T08:48:31.194Z,17.30
2019-04-22T08:51:09.462Z,17.50
2019-04-22T08:53:51.988Z,17.60
2019-04-22T08:58:57.311Z,17.60
2019-04-22T09:01:30.094Z,17.70
2019-04-22T09:07:01.150Z,17.80
2019-04-22T09:09:21.304Z,17.90
2019-04-22T09:12:51.947Z,17.90
2019-04-22T09:14:40.616Z,17.70
2019-04-22T09:17:13.398Z,17.70
2019-04-22T09:19:47.894Z,17.70
2019-04-22T09:22:21.834Z,17.70
2019-04-22T09:24:58.958Z,17.80
2019-04-22T09:27:40.040Z,18.00
2019-04-22T09:30:15.118Z,18.20
2019-04-22T09:32:59.223Z,18.20
2019-04-22T09:35:31.986Z,18.40
2019-04-22T09:38:20.269Z,18.20
2019-04-22T09:40:43.229Z,18.30
2019-04-22T09:43:27.853Z,18.40
2019-04-22T09:46:02.164Z,18.50
2019-04-22T09:48:37.324Z,18.40
2019-04-22T09:51:11.605Z,18.40
2019-04-22T09:53:54.761Z,18.40
2019-04-22T09:59:05.552Z,18.00
2019-04-22T10:01:34.091Z,18.10
2019-04-22T10:04:14.273Z,17.80
2019-04-22T10:06:44.349Z,17.70
2019-04-22T10:12:02.630Z,17.70
2019-04-22T10:14:47.992Z,17.70
2019-04-22T10:17:23.771Z,17.60
2019-04-22T10:19:53.698Z,17.60
2019-04-22T10:22:39.766Z,17.40
2019-04-22T10:25:10.792Z,17.10
2019-04-22T10:27:47.756Z,17.00
2019-04-22T10:30:33.326Z,16.90
2019-04-22T10:32:52.419Z,16.70
2019-04-22T10:35:18.301Z,16.70
2019-04-22T10:37:48.203Z,16.60
2019-04-22T10:40:28.453Z,16.50
2019-04-22T10:43:03.636Z,16.50
2019-04-22T10:45:39.913Z,16.40
2019-04-22T10:48:14.704Z,16.30
2019-04-22T10:50:50.636Z,16.20
2019-04-22T10:53:25.822Z,16.30
2019-04-22T10:56:01.025Z,16.30
2019-04-22T10:58:35.796Z,16.50
2019-04-22T11:01:11.547Z,16.30
2019-04-22T11:03:46.378Z,16.30
2019-04-22T11:06:21.392Z,16.30
2019-04-22T11:08:59.995Z,16.40
2019-04-22T11:11:45.523Z,16.60
2019-04-22T11:14:08.986Z,16.60
2019-04-22T11:16:43.972Z,16.50
2019-04-22T11:19:19.428Z,16.50
2019-04-22T11:22:05.090Z,16.40
2019-04-22T11:24:30.711Z,16.50
2019-04-22T11:27:07.047Z,16.60
2019-04-22T11:29:43.614Z,16.50
2019-04-22T11:32:18.626Z,16.50
2019-04-22T11:34:56.172Z,16.40
2019-04-22T11:37:32.638Z,16.30
2019-04-22T11:40:19.347Z,16.30
2019-04-22T11:42:45.983Z,16.40
2019-04-22T11:45:21.590Z,16.30
2019-04-22T11:47:57.262Z,16.10
2019-04-22T11:50:33.466Z,16.00
2019-04-22T11:53:08.949Z,16.00
2019-04-22T11:55:44.774Z,16.00
2019-04-22T11:58:21.053Z,15.90
2019-04-22T12:00:57.046Z,15.80
2019-04-22T12:03:31.927Z,15.80
2019-04-22T12:06:08.274Z,15.60
2019-04-22T12:08:43.693Z,15.70
2019-04-22T12:11:18.706Z,15.60
2019-04-22T12:13:54.038Z,15.70
2019-04-22T12:16:29.673Z,15.70
2019-04-22T12:19:05.070Z,15.70
2019-04-22T12:21:41.206Z,15.70
2019-04-22T12:24:17.224Z,15.70
2019-04-22T12:26:53.524Z,15.70
2019-04-22T12:29:29.030Z,15.80
2019-04-22T12:32:05.328Z,15.80
2019-04-22T12:34:41.582Z,15.80
2019-04-22T12:37:26.059Z,15.80
2019-04-22T12:39:56.511Z,15.90
2019-04-22T12:42:33.257Z,16.00
2019-04-22T12:45:12.137Z,15.90
2019-04-22T12:47:48.230Z,15.80
2019-04-22T12:50:29.227Z,15.80
2019-04-22T12:53:05.230Z,15.80
2019-04-22T12:55:37.574Z,15.80
2019-04-22T12:58:13.890Z,15.80
2019-04-22T13:00:50.847Z,15.90
2019-04-22T13:03:26.400Z,15.90
2019-04-22T13:06:01.577Z,15.90
2019-04-22T13:08:37.915Z,16.00
2019-04-22T13:11:16.567Z,16.00
2019-04-22T13:13:49.428Z,16.10
2019-04-22T13:16:26.861Z,16.20
2019-04-22T13:19:05.615Z,16.20
2019-04-22T13:21:40.580Z,16.30
2019-04-22T13:24:19.424Z,16.30
2019-04-22T13:26:53.013Z,16.20
2019-04-22T13:29:27.866Z,16.20
2019-04-22T13:32:02.661Z,16.20
2019-04-22T13:34:45.504Z,16.20
2019-04-22T13:37:15.101Z,16.30
2019-04-22T13:39:49.789Z,16.30
2019-04-22T13:42:25.541Z,16.40
2019-04-22T13:45:01.957Z,16.50
2019-04-22T13:47:55.754Z,16.50
2019-04-22T13:50:50.016Z,16.50
2019-04-22T13:55:56.473Z,16.50
2019-04-22T13:58:21.214Z,16.50
2019-04-22T14:00:42.280Z,16.50
2019-04-22T14:03:22.528Z,16.40
2019-04-22T14:06:00.696Z,16.50
2019-04-22T14:08:35.562Z,16.50
2019-04-22T14:11:23.289Z,16.50
2019-04-22T14:13:50.265Z,16.50
2019-04-22T14:16:27.048Z,16.50
2019-04-22T14:19:05.708Z,16.40
2019-04-22T14:21:42.536Z,16.50
2019-04-22T14:24:17.843Z,16.50
2019-04-22T14:27:08.560Z,16.50
2019-04-22T14:29:29.536Z,16.50
2019-04-22T14:32:11.392Z,16.50
2019-04-22T14:34:40.725Z,16.70
2019-04-22T14:37:16.447Z,16.60
2019-04-22T14:39:51.754Z,16.70
2019-04-22T14:42:44.003Z,16.80
2019-04-22T14:45:30.396Z,16.90
2019-04-22T14:48:07.229Z,16.90
2019-04-22T14:50:41.921Z,16.90
2019-04-22T14:53:13.379Z,16.90
2019-04-22T14:55:34.413Z,16.90
2019-04-22T14:58:09.034Z,16.90
2019-04-22T15:00:45.972Z,16.90
2019-04-22T15:03:21.890Z,16.90
2019-04-22T15:05:57.944Z,17.00
2019-04-22T15:08:33.038Z,16.90
2019-04-22T15:11:08.723Z,17.00
2019-04-22T15:13:47.473Z,17.10
2019-04-22T15:16:39.853Z,17.10
2019-04-22T15:19:28.028Z,17.10
2019-04-22T15:22:03.149Z,17.00
2019-04-22T15:24:38.760Z,17.00
2019-04-22T15:27:16.257Z,16.90
2019-04-22T15:29:53.578Z,16.90
2019-04-22T15:32:29.509Z,16.90
2019-04-22T15:35:07.218Z,16.80
2019-04-22T15:37:43.306Z,16.70
2019-04-22T15:40:18.486Z,16.70
2019-04-22T15:42:54.925Z,16.60
2019-04-22T15:45:32.631Z,16.60
2019-04-22T15:48:10.234Z,16.50
2019-04-22T15:50:50.657Z,16.40
2019-04-22T15:53:27.607Z,16.50
2019-04-22T15:56:05.016Z,16.50
2019-04-22T15:58:41.871Z,16.30
2019-04-22T16:01:27.532Z,16.30
2019-04-22T16:03:58.867Z,16.20
2019-04-22T16:06:34.699Z,16.10
2019-04-22T16:09:11.157Z,16.00
2019-04-22T16:11:45.998Z,16.00
2019-04-22T16:14:23.960Z,15.90
2019-04-22T16:16:56.942Z,15.90
2019-04-22T16:19:32.962Z,15.80
2019-04-22T16:22:13.418Z,15.80
2019-04-22T16:24:50.211Z,15.80
2019-04-22T16:27:26.662Z,15.70
2019-04-22T16:30:01.516Z,15.60
2019-04-22T16:32:37.065Z,15.50
2019-04-22T16:35:12.852Z,15.50
2019-04-22T16:37:48.572Z,15.40
2019-04-22T16:40:24.905Z,15.40
2019-04-22T16:43:04.198Z,15.40
2019-04-22T16:45:45.386Z,15.30
2019-04-22T16:48:21.847Z,15.30
2019-04-22T16:50:58.446Z,15.20
2019-04-22T16:53:34.914Z,15.10
2019-04-22T16:56:10.971Z,15.10
2019-04-22T16:58:46.694Z,15.00
2019-04-22T17:01:40.841Z,15.00
2019-04-22T17:04:24.732Z,15.00
2019-04-22T17:07:01.675Z,15.00
2019-04-22T17:09:39.492Z,14.90
2019-04-22T17:12:16.153Z,14.90
2019-04-22T17:14:56.818Z,14.90
2019-04-22T17:17:28.768Z,14.80
2019-04-22T17:20:05.114Z,14.80
2019-04-22T17:22:39.840Z,14.80
2019-04-22T17:25:16.438Z,14.70
2019-04-22T17:27:51.971Z,14.70
2019-04-22T17:30:29.143Z,14.70
2019-04-22T17:33:05.213Z,14.60
2019-04-22T17:35:43.611Z,14.60
2019-04-22T17:38:26.955Z,14.60
2019-04-22T17:41:10.456Z,14.60
2019-04-22T17:43:54.383Z,14.50
2019-04-22T17:46:28.206Z,14.40
2019-04-22T17:49:12.266Z,14.40
2019-04-22T17:52:04.535Z,14.40
2019-04-22T17:54:42.209Z,14.30
2019-04-22T17:57:17.262Z,14.30
2019-04-22T17:59:55.327Z,14.30
2019-04-22T18:02:27.491Z,14.20
2019-04-22T18:04:56.212Z,14.20
2019-04-22T18:07:54.532Z,14.20
2019-04-22T18:10:32.931Z,14.20
2019-04-22T18:13:14.163Z,14.20
2019-04-22T18:15:43.868Z,14.20
2019-04-22T18:18:18.947Z,14.20
2019-04-22T18:20:45.845Z,14.20
2019-04-22T18:23:14.517Z,14.20
2019-04-22T18:26:06.908Z,14.20
2019-04-22T18:28:43.601Z,14.10
2019-04-22T18:31:15.913Z,14.10
2019-04-22T18:33:50.170Z,14.10
2019-04-22T18:36:29.257Z,14.00
2019-04-22T18:39:11.511Z,14.00
2019-04-22T18:41:44.045Z,14.00
2019-04-22T18:44:25.045Z,13.90
2019-04-22T18:46:59.524Z,13.90
2019-04-22T18:49:37.553Z,13.80
2019-04-22T18:52:39.844Z,13.80
2019-04-22T18:55:12.901Z,13.80
2019-04-22T18:58:02.843Z,13.80
2019-04-22T19:00:27.329Z,13.70
2019-04-22T19:03:12.931Z,13.60
2019-04-22T19:06:03.627Z,13.60
2019-04-22T19:08:37.134Z,13.50
2019-04-22T19:11:16.697Z,13.40
2019-04-22T19:19:24.496Z,13.10
2019-04-22T19:21:43.371Z,13.00
2019-04-22T19:24:16.467Z,12.90
2019-04-22T19:26:58.744Z,12.80
2019-04-22T19:29:31.647Z,12.60
2019-04-22T19:32:06.958Z,12.50
2019-04-22T19:34:47.941Z,12.50
2019-04-22T19:37:24.347Z,12.40
2019-04-22T19:40:09.603Z,12.40
2019-04-22T19:42:44.256Z,12.30
2019-04-22T19:45:17.340Z,12.30
2019-04-22T19:47:59.872Z,12.30
2019-04-22T19:50:44.393Z,12.30
2019-04-22T19:53:33.049Z,12.30
2019-04-22T19:56:00.139Z,12.20
2019-04-22T19:58:37.183Z,12.20
2019-04-22T20:01:34.604Z,12.10
2019-04-22T20:04:25.074Z,12.10
2019-04-22T20:06:55.245Z,12.00
2019-04-22T20:09:37.987Z,12.00
2019-04-22T20:12:04.400Z,12.00
2019-04-22T20:14:45.971Z,11.90
2019-04-22T20:17:26.726Z,11.90
2019-04-22T20:20:06.412Z,11.80
2019-04-22T20:22:32.763Z,11.80
2019-04-22T20:25:01.860Z,11.70
2019-04-22T20:27:54.792Z,11.70
2019-04-22T20:30:29.943Z,11.60
2019-04-22T20:33:00.630Z,11.70
2019-04-22T20:35:45.229Z,11.60
2019-04-22T20:38:19.986Z,11.60
2019-04-22T20:40:55.057Z,11.60
2019-04-22T20:46:13.690Z,11.60
2019-04-22T20:48:50.283Z,11.60
2019-04-22T20:51:24.427Z,11.60
2019-04-22T20:54:02.103Z,11.50
2019-04-22T20:56:34.012Z,11.50
2019-04-22T20:59:14.288Z,11.50
2019-04-22T21:01:49.283Z,11.50
2019-04-22T21:04:19.750Z,11.50
2019-04-22T21:07:03.756Z,11.50
2019-04-22T21:09:43.230Z,11.50
2019-04-22T21:12:13.869Z,11.60
2019-04-22T21:15:00.240Z,11.60
2019-04-22T21:17:37.644Z,11.60
2019-04-22T21:20:13.799Z,11.60
2019-04-22T21:22:43.407Z,11.50
2019-04-22T21:25:16.790Z,11.50
2019-04-22T21:27:56.845Z,11.50
2019-04-22T21:30:31.970Z,11.50
2019-04-22T21:33:08.247Z,11.40
2019-04-22T21:36:01.359Z,11.40
2019-04-22T21:38:30.141Z,11.30
2019-04-22T21:41:01.771Z,11.30
2019-04-22T21:43:42.180Z,11.20
2019-04-22T21:46:19.143Z,11.20
2019-04-22T21:48:54.815Z,11.20
2019-04-22T21:51:39.999Z,11.10
2019-04-22T21:54:15.543Z,11.10
2019-04-22T21:57:04.393Z,11.10
2019-04-22T21:59:30.148Z,11.10
2019-04-22T22:02:25.697Z,11.10
2019-04-22T22:04:52.652Z,11.00
2019-04-22T22:07:21.337Z,11.00
2019-04-22T22:10:09.335Z,10.90
2019-04-22T22:12:57.409Z,10.90
2019-04-22T22:15:28.670Z,10.90
2019-04-22T22:18:02.294Z,10.90
2019-04-22T22:20:50.925Z,10.90
2019-04-22T22:23:25.372Z,10.80
2019-04-22T22:25:52.338Z,10.80
2019-04-22T22:28:45.425Z,10.70
2019-04-22T22:31:15.450Z,10.70
2019-04-22T22:33:48.155Z,10.70
2019-04-22T22:36:16.363Z,10.60
2019-04-22T22:38:53.214Z,10.70
2019-04-22T22:41:14.123Z,10.60
2019-04-22T22:43:51.153Z,10.60
2019-04-22T22:46:35.140Z,10.60
2019-04-22T22:49:22.867Z,10.50
2019-04-22T22:52:16.723Z,10.50
2019-04-22T22:54:37.417Z,10.40
2019-04-22T22:57:25.162Z,10.40
2019-04-22T22:59:51.278Z,10.40
2019-04-22T23:02:22.953Z,10.40
2019-04-22T23:05:06.138Z,10.30
2019-04-22T23:07:40.883Z,10.30
2019-04-22T23:10:17.517Z,10.30
2019-04-22T23:12:55.647Z,10.20
2019-04-22T23:15:25.412Z,10.20
2019-04-22T23:17:45.755Z,10.20
2019-04-22T23:20:28.963Z,10.20
2019-04-22T23:23:33.057Z,10.10
2019-04-22T23:25:59.686Z,10.10
2019-04-22T23:28:43.530Z,10.10
2019-04-22T23:31:15.441Z,10.10
2019-04-22T23:33:58.667Z,10.10
2019-04-22T23:36:36.926Z,10.00
2019-04-22T23:39:24.567Z,10.00
2019-04-22T23:42:10.968Z,10.00
2019-04-22T23:44:38.067Z,10.00
2019-04-22T23:47:08.523Z,9.90
2019-04-22T23:49:47.867Z,9.90
2019-04-22T23:52:28.916Z,9.90
2019-04-22T23:55:10.168Z,9.90
2019-04-22T23:57:50.504Z,9.90
